createdAt,value
2022-10-28T00:00:51.154Z,96349.84
2022-10-28T00:03:20.468Z,96352.03
2022-10-28T00:05:48.107Z,96356.16
2022-10-28T00:08:15.695Z,96352.66
2022-10-28T00:10:43.279Z,96352.22
2022-10-28T00:13:10.890Z,96356.56
2022-10-28T00:15:38.446Z,96353.78
2022-10-28T00:18:06.081Z,96352.34
2022-10-28T00:20:35.055Z,96352.22
2022-10-28T00:23:02.617Z,96355.81
2022-10-28T00:25:30.183Z,96344.69
2022-10-28T00:27:57.759Z,96344.41
2022-10-28T00:30:25.412Z,96346.50
2022-10-28T00:32:53.771Z,96341.97
2022-10-28T00:35:21.571Z,96344.75
2022-10-28T00:37:53.923Z,96342.38
2022-10-28T00:40:21.483Z,96335.78
2022-10-28T00:42:49.070Z,96341.63
2022-10-28T00:45:16.646Z,96334.19
2022-10-28T00:47:52.564Z,96330.47
2022-10-28T00:50:41.922Z,96336.63
2022-10-28T00:53:15.594Z,96330.94
2022-10-28T00:55:44.023Z,96320.72
2022-10-28T00:58:12.616Z,96323.78
2022-10-28T01:00:40.361Z,96326.66
2022-10-28T01:03:08.269Z,96332.22
2022-10-28T01:05:39.094Z,96329.28
2022-10-28T01:08:07.822Z,96324.63
2022-10-28T01:10:58.514Z,96319.03
2022-10-28T01:13:39.341Z,96328.28
2022-10-28T01:16:17.996Z,96325.22
2022-10-28T01:18:57.292Z,96317.47
2022-10-28T01:21:46.369Z,96319.41
2022-10-28T01:24:27.707Z,96316.56
2022-10-28T01:27:13.900Z,96307.25
2022-10-28T01:29:57.644Z,96304.41
2022-10-28T01:32:32.705Z,96306.88
2022-10-28T01:35:12.806Z,96308.16
2022-10-28T01:37:49.539Z,96313.19
2022-10-28T01:40:24.117Z,96316.84
2022-10-28T01:42:56.813Z,96315.38
2022-10-28T01:45:29.783Z,96305.03
2022-10-28T01:48:02.210Z,96307.13
2022-10-28T01:50:36.415Z,96319.97
2022-10-28T01:53:11.715Z,96320.31
2022-10-28T01:55:41.359Z,96318.22
2022-10-28T01:58:12.577Z,96321.25
2022-10-28T02:00:41.915Z,96308.22
2022-10-28T02:03:11.426Z,96316.09
2022-10-28T02:05:42.237Z,96312.84
2022-10-28T02:08:36.150Z,96314.81
2022-10-28T02:11:19.821Z,96310.22
2022-10-28T02:13:56.250Z,96316.66
2022-10-28T02:16:33.359Z,96313.47
2022-10-28T02:19:09.720Z,96322.16
2022-10-28T02:21:47.755Z,96311.25
2022-10-28T02:24:22.050Z,96314.09
2022-10-28T02:26:56.486Z,96304.59
2022-10-28T02:29:35.108Z,96313.72
2022-10-28T02:32:07.067Z,96311.50
2022-10-28T02:34:41.389Z,96319.84
2022-10-28T02:37:15.109Z,96318.16
2022-10-28T02:39:47.322Z,96311.16
2022-10-28T02:42:20.430Z,96316.16
2022-10-28T02:44:52.663Z,96312.00
2022-10-28T02:47:25.134Z,96304.03
2022-10-28T02:49:58.370Z,96304.03
2022-10-28T02:52:29.178Z,96300.25
2022-10-28T02:54:59.244Z,96300.38
2022-10-28T02:57:28.795Z,96298.97
2022-10-28T02:59:58.807Z,96292.81
2022-10-28T03:02:26.755Z,96303.38
2022-10-28T03:04:55.751Z,96294.59
2022-10-28T03:07:23.590Z,96295.41
2022-10-28T03:09:51.229Z,96296.22
2022-10-28T03:12:19.501Z,96297.06
2022-10-28T03:14:47.242Z,96298.47
2022-10-28T03:17:14.939Z,96294.97
2022-10-28T03:19:42.579Z,96295.19
2022-10-28T03:22:11.590Z,96295.53
2022-10-28T03:24:39.125Z,96294.50
2022-10-28T03:27:06.705Z,96297.84
2022-10-28T03:29:34.404Z,96294.22
2022-10-28T03:32:01.997Z,96301.44
2022-10-28T03:34:30.013Z,96301.72
2022-10-28T03:36:57.621Z,96300.19
2022-10-28T03:39:26.559Z,96297.44
2022-10-28T03:41:54.160Z,96311.34
2022-10-28T03:44:21.709Z,96300.41
2022-10-28T03:46:49.291Z,96300.78
2022-10-28T03:49:16.864Z,96292.56
2022-10-28T03:51:44.420Z,96298.50
2022-10-28T03:54:11.997Z,96288.16
2022-10-28T03:56:41.324Z,96291.75
2022-10-28T03:59:09.904Z,96295.28
2022-10-28T04:01:37.709Z,96299.44
2022-10-28T04:04:06.058Z,96302.63
2022-10-28T04:06:33.651Z,96300.53
2022-10-28T04:09:01.245Z,96296.63
2022-10-28T04:11:28.823Z,96300.78
2022-10-28T04:13:57.746Z,96304.03
2022-10-28T04:16:25.337Z,96297.97
2022-10-28T04:18:52.887Z,96306.97
2022-10-28T04:21:20.433Z,96306.63
2022-10-28T04:23:48.139Z,96298.41
2022-10-28T04:26:15.726Z,96298.28
2022-10-28T04:28:43.305Z,96297.38
2022-10-28T04:31:13.102Z,96291.69
2022-10-28T04:33:40.652Z,96296.97
2022-10-28T04:36:08.546Z,96296.63
2022-10-28T04:38:36.113Z,96301.66
2022-10-28T04:41:04.096Z,96298.69
2022-10-28T04:43:31.629Z,96300.59
2022-10-28T04:46:05.768Z,96302.75
2022-10-28T04:48:34.707Z,96300.75
2022-10-28T04:51:02.611Z,96302.25
2022-10-28T04:53:30.224Z,96299.22
2022-10-28T04:55:58.815Z,96291.13
2022-10-28T04:58:26.946Z,96288.72
2022-10-28T05:00:54.527Z,96299.56
2022-10-28T05:03:22.095Z,96297.13
2022-10-28T05:05:51.048Z,96297.03
2022-10-28T05:08:19.017Z,96292.56
2022-10-28T05:10:49.968Z,96297.06
2022-10-28T05:13:17.601Z,96285.09
2022-10-28T05:15:45.258Z,96296.47
2022-10-28T05:18:12.830Z,96291.97
2022-10-28T05:20:40.439Z,96286.59
2022-10-28T05:23:09.393Z,96286.84
2022-10-28T05:25:36.981Z,96280.28
2022-10-28T05:28:04.690Z,96280.09
2022-10-28T05:30:32.244Z,96276.47
2022-10-28T05:33:01.819Z,96274.84
2022-10-28T05:35:31.995Z,96271.75
2022-10-28T05:37:59.757Z,96274.63
2022-10-28T05:40:28.779Z,96269.56
2022-10-28T05:42:56.714Z,96270.16
2022-10-28T05:45:24.490Z,96280.41
2022-10-28T05:47:52.211Z,96286.13
2022-10-28T05:50:20.773Z,96275.78
2022-10-28T05:52:49.735Z,96282.13
2022-10-28T05:55:19.377Z,96279.94
2022-10-28T05:57:48.671Z,96285.16
2022-10-28T06:00:17.314Z,96281.63
2022-10-28T06:02:45.103Z,96282.19
2022-10-28T06:05:12.956Z,96284.44
2022-10-28T06:07:41.660Z,96290.88
2022-10-28T06:10:11.172Z,96294.41
2022-10-28T06:12:37.590Z,96298.94
2022-10-28T06:15:07.698Z,96301.53
2022-10-28T06:17:35.599Z,96308.56
2022-10-28T06:20:04.148Z,96309.66
2022-10-28T06:22:31.796Z,96308.69
2022-10-28T06:24:59.349Z,96309.88
2022-10-28T06:27:26.963Z,96311.66
2022-10-28T06:29:54.578Z,96310.22
2022-10-28T06:32:23.491Z,96314.13
2022-10-28T06:34:51.064Z,96311.84
2022-10-28T06:37:18.652Z,96308.59
2022-10-28T06:39:49.714Z,96311.50
2022-10-28T06:42:17.343Z,96305.75
2022-10-28T06:44:44.929Z,96307.25
2022-10-28T06:47:13.996Z,96303.69
2022-10-28T06:49:42.939Z,96305.75
2022-10-28T06:52:10.509Z,96308.81
2022-10-28T06:54:38.116Z,96306.41
2022-10-28T06:57:06.484Z,96306.97
2022-10-28T06:59:34.035Z,96306.25
2022-10-28T07:02:01.767Z,96312.00
2022-10-28T07:04:29.507Z,96315.69
2022-10-28T07:06:59.081Z,96320.34
2022-10-28T07:09:27.085Z,96322.78
2022-10-28T07:11:55.423Z,96335.34
2022-10-28T07:14:23.670Z,96329.56
2022-10-28T07:16:51.281Z,96331.34
2022-10-28T07:19:22.589Z,96333.00
2022-10-28T07:21:50.330Z,96338.09
2022-10-28T07:24:19.310Z,96343.09
2022-10-28T07:26:51.088Z,96345.59
2022-10-28T07:29:20.670Z,96346.31
2022-10-28T07:31:48.238Z,96352.81
2022-10-28T07:34:15.928Z,96348.69
2022-10-28T07:36:43.587Z,96361.53
2022-10-28T07:39:11.259Z,96350.00
2022-10-28T07:41:40.551Z,96355.34
2022-10-28T07:44:08.189Z,96357.25
2022-10-28T07:46:35.902Z,96351.22
2022-10-28T07:49:03.692Z,96358.09
2022-10-28T07:51:31.396Z,96361.41
2022-10-28T07:53:59.216Z,96354.16
2022-10-28T07:56:26.811Z,96358.16
2022-10-28T07:58:55.813Z,96349.25
2022-10-28T08:01:23.523Z,96353.94
2022-10-28T08:03:51.252Z,96350.97
2022-10-28T08:06:21.582Z,96353.19
2022-10-28T08:08:53.927Z,96351.13
2022-10-28T08:11:23.723Z,96355.16
2022-10-28T08:13:52.344Z,96342.38
2022-10-28T08:16:21.262Z,96348.06
2022-10-28T08:18:48.912Z,96346.84
2022-10-28T08:21:17.019Z,96353.25
2022-10-28T08:23:46.508Z,96350.31
2022-10-28T08:26:14.827Z,96354.53
2022-10-28T08:28:42.949Z,96355.09
2022-10-28T08:31:12.346Z,96343.47
2022-10-28T08:33:44.322Z,96345.06
2022-10-28T08:36:13.882Z,96333.19
2022-10-28T08:38:45.313Z,96339.81
2022-10-28T08:41:25.547Z,96344.94
2022-10-28T08:44:05.776Z,96347.28
2022-10-28T08:46:50.479Z,96342.75
2022-10-28T08:49:23.243Z,96333.47
2022-10-28T08:51:55.906Z,96328.94
2022-10-28T08:54:28.333Z,96337.88
2022-10-28T08:56:59.938Z,96346.44
2022-10-28T08:59:32.139Z,96347.69
2022-10-28T09:02:04.227Z,96349.34
2022-10-28T09:04:39.539Z,96340.66
2022-10-28T09:07:12.041Z,96344.63
2022-10-28T09:09:39.739Z,96345.50
2022-10-28T09:12:16.190Z,96351.16
2022-10-28T09:14:58.620Z,96351.56
2022-10-28T09:17:36.557Z,96356.53
2022-10-28T09:20:15.111Z,96342.69
2022-10-28T09:22:50.449Z,96352.75
2022-10-28T09:25:24.588Z,96346.97
2022-10-28T09:28:22.156Z,96341.44
2022-10-28T09:31:01.186Z,96341.13
2022-10-28T09:33:47.994Z,96334.88
2022-10-28T09:36:23.525Z,96332.00
2022-10-28T09:38:53.941Z,96340.59
2022-10-28T09:41:25.335Z,96335.72
2022-10-28T09:43:55.887Z,96336.28
2022-10-28T09:46:26.927Z,96342.25
2022-10-28T09:48:58.073Z,96336.53
2022-10-28T09:51:35.711Z,96340.13
2022-10-28T09:54:03.642Z,96336.81
2022-10-28T09:56:31.827Z,96339.97
2022-10-28T09:59:02.655Z,96341.00
2022-10-28T10:01:34.124Z,96344.19
2022-10-28T10:04:02.168Z,96345.34
2022-10-28T10:06:36.523Z,96341.00
2022-10-28T10:09:04.754Z,96338.09
2022-10-28T10:11:37.401Z,96337.59
2022-10-28T10:14:09.176Z,96331.03
2022-10-28T10:16:42.348Z,96326.38
2022-10-28T10:19:11.996Z,96326.78
2022-10-28T10:21:46.451Z,96330.47
2022-10-28T10:24:25.305Z,96323.28
2022-10-28T10:26:53.953Z,96324.09
2022-10-28T10:29:22.560Z,96324.59
2022-10-28T10:32:05.719Z,96316.78
2022-10-28T10:34:34.429Z,96322.25
2022-10-28T10:39:39.811Z,96314.66
2022-10-28T10:42:17.571Z,96318.19
2022-10-28T10:45:02.333Z,96317.03
2022-10-28T10:47:30.308Z,96316.75
2022-10-28T10:50:24.375Z,96314.00
2022-10-28T10:52:56.655Z,96320.13
2022-10-28T10:55:33.332Z,96309.66
2022-10-28T10:58:02.220Z,96301.16
2022-10-28T11:00:35.047Z,96307.41
2022-10-28T11:03:04.239Z,96303.16
2022-10-28T11:05:35.848Z,96300.25
2022-10-28T11:08:07.712Z,96304.59
2022-10-28T11:10:36.151Z,96298.47
2022-10-28T11:13:06.349Z,96295.75
2022-10-28T11:15:34.397Z,96289.66
2022-10-28T11:18:20.588Z,96292.66
2022-10-28T11:20:55.970Z,96286.38
2022-10-28T11:23:45.027Z,96286.69
2022-10-28T11:26:17.077Z,96281.13
2022-10-28T11:28:57.432Z,96277.78
2022-10-28T11:42:48.591Z,96252.31
2022-10-28T11:45:25.842Z,96262.41
2022-10-28T11:48:09.665Z,96257.13
2022-10-28T11:50:50.117Z,96257.97
2022-10-28T11:53:40.938Z,96258.34
2022-10-28T11:56:17.290Z,96252.50
2022-10-28T11:58:55.490Z,96244.66
2022-10-28T12:01:42.285Z,96245.56
2022-10-28T12:04:20.769Z,96250.34
2022-10-28T12:07:21.607Z,96247.97
2022-10-28T12:10:11.269Z,96246.97
2022-10-28T12:12:48.719Z,96245.56
2022-10-28T12:15:29.761Z,96236.25
2022-10-28T12:18:07.035Z,96239.81
2022-10-28T12:20:39.172Z,96231.84
2022-10-28T12:23:12.993Z,96233.81
2022-10-28T12:25:44.765Z,96229.47
2022-10-28T12:28:20.762Z,96230.28
2022-10-28T12:30:52.496Z,96226.44
2022-10-28T12:33:24.665Z,96223.16
2022-10-28T12:35:56.352Z,96215.41
2022-10-28T12:38:29.963Z,96214.25
2022-10-28T12:41:07.363Z,96213.63
2022-10-28T12:43:40.027Z,96212.41
2022-10-28T12:46:20.293Z,96217.66
2022-10-28T12:48:52.464Z,96215.88
2022-10-28T12:51:26.399Z,96211.13
2022-10-28T12:53:59.461Z,96213.75
2022-10-28T12:56:32.305Z,96206.34
2022-10-28T12:59:05.653Z,96218.25
2022-10-28T13:01:37.077Z,96208.31
2022-10-28T13:04:05.258Z,96216.59
2022-10-28T13:07:03.562Z,96214.25
2022-10-28T13:09:54.283Z,96209.16
2022-10-28T13:12:47.262Z,96205.84
2022-10-28T13:15:46.523Z,96211.28
2022-10-28T13:18:46.651Z,96208.00
2022-10-28T13:21:29.724Z,96208.50
2022-10-28T13:24:05.416Z,96196.06
2022-10-28T13:26:35.548Z,96196.09
2022-10-28T13:29:07.763Z,96198.91
2022-10-28T13:31:41.336Z,96194.94
2022-10-28T13:34:10.657Z,96202.00
2022-10-28T13:36:43.067Z,96201.19
2022-10-28T13:39:24.916Z,96197.53
2022-10-28T13:42:25.973Z,96201.84
2022-10-28T13:44:55.692Z,96206.16
2022-10-28T13:47:27.127Z,96202.78
2022-10-28T13:50:15.479Z,96195.00
2022-10-28T13:52:45.960Z,96189.88
2022-10-28T13:55:23.321Z,96199.84
2022-10-28T13:57:53.057Z,96193.47
2022-10-28T14:00:37.880Z,96196.88
2022-10-28T14:03:07.610Z,96193.78
2022-10-28T14:05:57.269Z,96199.75
2022-10-28T14:08:30.962Z,96201.50
2022-10-28T14:11:05.716Z,96202.88
2022-10-28T14:13:37.186Z,96204.09
2022-10-28T14:16:30.644Z,96202.16
2022-10-28T14:19:02.085Z,96198.94
2022-10-28T14:21:41.975Z,96206.19
2022-10-28T14:24:14.799Z,96204.41
2022-10-28T14:27:28.669Z,96205.41
2022-10-28T14:30:24.856Z,96212.53
2022-10-28T14:33:21.564Z,96209.19
2022-10-28T14:35:57.115Z,96205.91
2022-10-28T14:38:50.721Z,96204.78
2022-10-28T14:41:39.888Z,96198.53
2022-10-28T14:44:21.954Z,96203.34
2022-10-28T14:47:03.815Z,96192.63
2022-10-28T14:49:33.775Z,96200.69
2022-10-28T14:52:08.453Z,96196.75
2022-10-28T14:54:40.862Z,96198.06
2022-10-28T14:57:11.291Z,96203.69
2022-10-28T14:59:41.528Z,96198.56
2022-10-28T15:02:13.528Z,96199.88
2022-10-28T15:04:43.867Z,96202.88
2022-10-28T15:07:14.789Z,96202.53
2022-10-28T15:09:44.413Z,96201.56
2022-10-28T15:12:16.774Z,96206.47
2022-10-28T15:14:47.526Z,96197.69
2022-10-28T15:17:17.659Z,96199.69
2022-10-28T15:19:45.991Z,96201.63
2022-10-28T15:22:17.269Z,96202.81
2022-10-28T15:24:54.762Z,96202.69
2022-10-28T15:27:24.907Z,96195.25
2022-10-28T15:29:53.287Z,96201.22
2022-10-28T15:32:32.599Z,96198.91
2022-10-28T15:35:01.097Z,96202.69
2022-10-28T15:37:31.641Z,96193.69
2022-10-28T15:40:21.287Z,96205.06
2022-10-28T15:42:54.709Z,96204.78
2022-10-28T15:45:26.537Z,96195.66
2022-10-28T15:47:55.965Z,96197.78
2022-10-28T15:50:32.216Z,96205.41
2022-10-28T15:53:33.154Z,96197.78
2022-10-28T15:56:19.574Z,96194.75
2022-10-28T15:59:00.969Z,96202.31
2022-10-28T16:01:31.142Z,96196.06
2022-10-28T16:03:59.207Z,96199.06
2022-10-28T16:06:29.286Z,96208.25
2022-10-28T16:09:06.256Z,96197.53
2022-10-28T16:11:39.280Z,96188.13
2022-10-28T16:14:27.410Z,96193.75
2022-10-28T16:16:56.898Z,96182.63
2022-10-28T16:19:29.474Z,96191.75
2022-10-28T16:21:57.303Z,96188.81
2022-10-28T16:24:24.943Z,96195.91
2022-10-28T16:26:52.497Z,96189.31
2022-10-28T16:29:21.437Z,96198.91
2022-10-28T16:31:52.518Z,96207.97
2022-10-28T16:34:20.147Z,96200.75
2022-10-28T16:36:47.753Z,96196.94
2022-10-28T16:39:15.342Z,96209.16
2022-10-28T16:41:42.946Z,96202.72
2022-10-28T16:44:17.629Z,96208.16
2022-10-28T16:46:46.620Z,96201.34
2022-10-28T16:49:14.853Z,96205.69
2022-10-28T16:51:42.481Z,96204.84
2022-10-28T16:54:11.238Z,96208.97
2022-10-28T16:56:38.957Z,96206.97
2022-10-28T16:59:06.503Z,96199.06
2022-10-28T17:01:35.109Z,96203.38
2022-10-28T17:04:04.338Z,96201.38
2022-10-28T17:06:31.887Z,96203.38
2022-10-28T17:09:03.309Z,96195.28
2022-10-28T17:14:03.890Z,96202.56
2022-10-28T17:16:31.491Z,96212.13
2022-10-28T17:18:59.140Z,96208.50
2022-10-28T17:21:28.416Z,96216.41
2022-10-28T17:23:56.013Z,96211.63
2022-10-28T17:26:23.569Z,96219.03
2022-10-28T17:28:54.077Z,96226.78
2022-10-28T17:31:24.862Z,96226.94
2022-10-28T17:33:54.972Z,96217.00
2022-10-28T17:36:24.082Z,96225.38
2022-10-28T17:38:53.010Z,96226.88
2022-10-28T17:41:20.766Z,96221.72
2022-10-28T17:43:48.372Z,96225.38
2022-10-28T17:46:15.980Z,96215.00
2022-10-28T17:48:43.583Z,96222.09
2022-10-28T17:51:11.480Z,96224.00
2022-10-28T17:53:39.074Z,96219.88
2022-10-28T17:56:09.013Z,96224.16
2022-10-28T17:58:36.958Z,96217.28
2022-10-28T18:01:06.515Z,96212.94
2022-10-28T18:03:38.276Z,96217.34
2022-10-28T18:06:08.407Z,96215.00
2022-10-28T18:08:37.276Z,96213.75
2022-10-28T18:11:05.953Z,96216.84
2022-10-28T18:13:37.349Z,96219.31
2022-10-28T18:16:05.399Z,96221.78
2022-10-28T18:18:37.438Z,96216.94
2022-10-28T18:21:09.442Z,96215.97
2022-10-28T18:23:37.311Z,96211.53
2022-10-28T18:26:07.305Z,96228.00
2022-10-28T18:28:37.440Z,96216.75
2022-10-28T18:31:06.659Z,96223.69
2022-10-28T18:33:35.003Z,96226.47
2022-10-28T18:36:04.581Z,96219.53
2022-10-28T18:38:32.862Z,96220.31
2022-10-28T18:41:00.833Z,96220.03
2022-10-28T18:43:28.849Z,96221.47
2022-10-28T18:46:02.108Z,96222.88
2022-10-28T18:48:30.747Z,96225.78
2022-10-28T18:50:59.466Z,96224.47
2022-10-28T18:53:27.588Z,96234.06
2022-10-28T18:56:00.727Z,96231.75
2022-10-28T18:58:28.461Z,96220.88
2022-10-28T19:01:06.246Z,96218.06
2022-10-28T19:03:33.974Z,96228.06
2022-10-28T19:06:02.617Z,96228.91
2022-10-28T19:08:30.272Z,96222.88
2022-10-28T19:10:58.491Z,96220.81
2022-10-28T19:13:26.606Z,96224.69
2022-10-28T19:15:54.582Z,96234.66
2022-10-28T19:18:23.519Z,96227.84
2022-10-28T19:20:51.209Z,96230.63
2022-10-28T19:23:18.921Z,96234.22
2022-10-28T19:25:54.733Z,96235.56
2022-10-28T19:28:22.375Z,96250.00
2022-10-28T19:30:50.106Z,96253.41
2022-10-28T19:33:17.726Z,96255.69
2022-10-28T19:35:46.698Z,96267.19
2022-10-28T19:38:14.297Z,96257.50
2022-10-28T19:40:41.863Z,96247.63
2022-10-28T19:43:09.851Z,96247.03
2022-10-28T19:45:37.413Z,96244.34
2022-10-28T19:48:05.188Z,96237.72
2022-10-28T19:50:32.774Z,96260.53
2022-10-28T19:53:01.696Z,96255.78
2022-10-28T19:55:29.265Z,96255.34
2022-10-28T19:57:57.168Z,96246.16
2022-10-28T20:00:25.021Z,96243.66
2022-10-28T20:02:52.638Z,96240.94
2022-10-28T20:05:20.191Z,96246.63
2022-10-28T20:07:47.880Z,96249.81
2022-10-28T20:10:16.936Z,96246.44
2022-10-28T20:12:44.554Z,96250.88
2022-10-28T20:15:12.107Z,96245.81
2022-10-28T20:17:39.690Z,96241.75
2022-10-28T20:20:08.552Z,96253.56
2022-10-28T20:22:41.337Z,96251.72
2022-10-28T20:25:10.665Z,96247.88
2022-10-28T20:27:39.634Z,96252.16
2022-10-28T20:30:08.588Z,96252.44
2022-10-28T20:32:36.295Z,96248.31
2022-10-28T20:35:03.974Z,96248.66
2022-10-28T20:37:31.577Z,96248.47
2022-10-28T20:40:01.618Z,96247.53
2022-10-28T20:42:31.969Z,96253.44
2022-10-28T20:45:06.278Z,96254.56
2022-10-28T20:47:42.774Z,96254.91
2022-10-28T20:50:23.877Z,96254.22
2022-10-28T20:53:03.480Z,96248.25
2022-10-28T20:55:57.867Z,96250.22
2022-10-28T20:58:31.804Z,96254.41
2022-10-28T21:01:06.368Z,96250.94
2022-10-28T21:03:34.256Z,96256.84
2022-10-28T21:06:03.513Z,96254.47
2022-10-28T21:08:31.164Z,96256.56
2022-10-28T21:11:03.049Z,96249.47
2022-10-28T21:13:30.708Z,96247.75
2022-10-28T21:15:58.735Z,96251.69
2022-10-28T21:18:28.094Z,96244.38
2022-10-28T21:20:57.076Z,96241.22
2022-10-28T21:23:25.076Z,96248.47
2022-10-28T21:25:56.199Z,96248.63
2022-10-28T21:28:24.204Z,96244.31
2022-10-28T21:30:51.765Z,96240.84
2022-10-28T21:33:19.354Z,96247.41
2022-10-28T21:35:55.685Z,96246.91
2022-10-28T21:38:23.279Z,96252.38
2022-10-28T21:40:58.664Z,96248.06
2022-10-28T21:43:28.451Z,96245.44
2022-10-28T21:45:56.076Z,96243.66
2022-10-28T21:48:23.831Z,96244.09
2022-10-28T21:50:53.625Z,96262.97
2022-10-28T21:53:21.552Z,96258.56
2022-10-28T21:55:51.180Z,96258.84
2022-10-28T21:58:19.762Z,96254.88
2022-10-28T22:00:47.541Z,96249.69
2022-10-28T22:03:15.336Z,96247.50
2022-10-28T22:05:50.648Z,96240.41
2022-10-28T22:08:19.594Z,96246.53
2022-10-28T22:10:47.183Z,96242.31
2022-10-28T22:13:14.762Z,96246.06
2022-10-28T22:15:42.385Z,96241.19
2022-10-28T22:18:09.969Z,96246.75
2022-10-28T22:20:37.533Z,96243.44
2022-10-28T22:23:05.161Z,96241.75
2022-10-28T22:25:34.121Z,96242.16
2022-10-28T22:28:01.678Z,96233.81
2022-10-28T22:30:29.280Z,96235.22
2022-10-28T22:32:57.306Z,96239.56
2022-10-28T22:35:25.238Z,96242.31
2022-10-28T22:37:53.075Z,96235.31
2022-10-28T22:40:20.771Z,96237.19
2022-10-28T22:42:49.689Z,96238.84
2022-10-28T22:45:17.907Z,96238.69
2022-10-28T22:47:45.532Z,96235.16
2022-10-28T22:50:14.233Z,96237.94
2022-10-28T22:52:41.905Z,96256.28
2022-10-28T22:55:10.293Z,96252.22
2022-10-28T22:57:37.876Z,96246.75
2022-10-28T23:00:08.363Z,96247.34
2022-10-28T23:02:36.118Z,96241.84
2022-10-28T23:05:03.862Z,96243.09
2022-10-28T23:07:31.546Z,96251.75
2022-10-28T23:10:00.512Z,96240.25
2022-10-28T23:12:28.082Z,96241.69
2022-10-28T23:14:55.870Z,96237.84
2022-10-28T23:17:24.781Z,96232.00
2022-10-28T23:19:52.362Z,96239.50
2022-10-28T23:22:19.953Z,96233.97
2022-10-28T23:24:47.619Z,96239.56
2022-10-28T23:27:15.597Z,96244.31
2022-10-28T23:29:43.289Z,96248.06
2022-10-28T23:32:10.844Z,96244.06
2022-10-28T23:34:39.901Z,96244.81
2022-10-28T23:37:07.528Z,96239.41
2022-10-28T23:39:35.220Z,96243.41
2022-10-28T23:42:02.867Z,96233.72
2022-10-28T23:44:30.441Z,96236.78
2022-10-28T23:46:58.057Z,96239.63
2022-10-28T23:49:25.701Z,96243.66
2022-10-28T23:51:54.631Z,96240.09
2022-10-28T23:54:22.222Z,96243.16
2022-10-28T23:56:50.924Z,96246.34
2022-10-28T23:59:19.700Z,96244.09
